sensor_id;sensor_type;location;lat;lon;timestamp;P1;durP1;ratioP1;P2;durP2;ratioP2
11338;SDS011;5724;42.684;23.252;2022-07-10T00:01:19;13.55;;;12.75;;
11338;SDS011;5724;42.684;23.252;2022-07-10T00:03:44;13.18;;;12.38;;
11338;SDS011;5724;42.684;23.252;2022-07-10T00:06:10;13.85;;;12.95;;
11338;SDS011;5724;42.684;23.252;2022-07-10T00:08:35;14.93;;;13.55;;
11338;SDS011;5724;42.684;23.252;2022-07-10T00:11:01;14.73;;;13.52;;
11338;SDS011;5724;42.684;23.252;2022-07-10T00:13:27;14.27;;;13.27;;
11338;SDS011;5724;42.684;23.252;2022-07-10T00:15:52;13.55;;;12.57;;
11338;SDS011;5724;42.684;23.252;2022-07-10T00:18:18;13.70;;;13.00;;
11338;SDS011;5724;42.684;23.252;2022-07-10T00:20:43;14.55;;;13.55;;
11338;SDS011;5724;42.684;23.252;2022-07-10T00:23:09;14.80;;;13.90;;
11338;SDS011;5724;42.684;23.252;2022-07-10T00:25:34;15.00;;;13.93;;
11338;SDS011;5724;42.684;23.252;2022-07-10T00:28:00;14.77;;;13.88;;
11338;SDS011;5724;42.684;23.252;2022-07-10T00:30:25;14.35;;;13.27;;
11338;SDS011;5724;42.684;23.252;2022-07-10T00:32:51;15.75;;;14.57;;
11338;SDS011;5724;42.684;23.252;2022-07-10T00:35:17;13.55;;;12.75;;
11338;SDS011;5724;42.684;23.252;2022-07-10T00:37:42;13.30;;;12.60;;
11338;SDS011;5724;42.684;23.252;2022-07-10T00:40:08;13.32;;;12.63;;
11338;SDS011;5724;42.684;23.252;2022-07-10T00:42:33;13.50;;;12.60;;
11338;SDS011;5724;42.684;23.252;2022-07-10T00:44:59;14.15;;;12.98;;
11338;SDS011;5724;42.684;23.252;2022-07-10T00:47:25;12.75;;;12.15;;
11338;SDS011;5724;42.684;23.252;2022-07-10T00:49:50;12.90;;;12.20;;
11338;SDS011;5724;42.684;23.252;2022-07-10T00:52:16;12.60;;;11.90;;
11338;SDS011;5724;42.684;23.252;2022-07-10T00:54:43;13.80;;;12.70;;
11338;SDS011;5724;42.684;23.252;2022-07-10T00:57:10;13.57;;;12.77;;
11338;SDS011;5724;42.684;23.252;2022-07-10T00:59:39;13.02;;;12.32;;
11338;SDS011;5724;42.684;23.252;2022-07-10T01:02:05;13.52;;;12.38;;
11338;SDS011;5724;42.684;23.252;2022-07-10T01:04:31;14.30;;;13.20;;
11338;SDS011;5724;42.684;23.252;2022-07-10T01:06:57;13.80;;;12.90;;
11338;SDS011;5724;42.684;23.252;2022-07-10T01:09:23;13.10;;;12.40;;
11338;SDS011;5724;42.684;23.252;2022-07-10T01:11:48;14.30;;;13.50;;
11338;SDS011;5724;42.684;23.252;2022-07-10T01:14:15;13.93;;;12.95;;
11338;SDS011;5724;42.684;23.252;2022-07-10T01:16:41;14.55;;;13.32;;
11338;SDS011;5724;42.684;23.252;2022-07-10T01:19:06;13.77;;;12.88;;
11338;SDS011;5724;42.684;23.252;2022-07-10T01:21:33;14.27;;;13.45;;
11338;SDS011;5724;42.684;23.252;2022-07-10T01:24:02;14.27;;;13.15;;
11338;SDS011;5724;42.684;23.252;2022-07-10T01:26:30;14.07;;;13.18;;
11338;SDS011;5724;42.684;23.252;2022-07-10T01:28:55;14.25;;;13.30;;
11338;SDS011;5724;42.684;23.252;2022-07-10T01:31:24;13.25;;;12.48;;
11338;SDS011;5724;42.684;23.252;2022-07-10T01:33:52;13.70;;;12.90;;
11338;SDS011;5724;42.684;23.252;2022-07-10T01:36:17;14.02;;;13.00;;
11338;SDS011;5724;42.684;23.252;2022-07-10T01:38:43;13.90;;;12.85;;
11338;SDS011;5724;42.684;23.252;2022-07-10T01:41:08;13.65;;;12.68;;
11338;SDS011;5724;42.684;23.252;2022-07-10T01:43:37;13.68;;;12.57;;
11338;SDS011;5724;42.684;23.252;2022-07-10T01:46:07;13.60;;;12.60;;
11338;SDS011;5724;42.684;23.252;2022-07-10T01:48:33;13.30;;;12.52;;
11338;SDS011;5724;42.684;23.252;2022-07-10T01:50:59;14.25;;;13.13;;
11338;SDS011;5724;42.684;23.252;2022-07-10T01:53:24;13.65;;;12.82;;
11338;SDS011;5724;42.684;23.252;2022-07-10T01:55:50;11.70;;;11.00;;
11338;SDS011;5724;42.684;23.252;2022-07-10T01:58:15;13.77;;;12.73;;
11338;SDS011;5724;42.684;23.252;2022-07-10T02:00:41;12.50;;;11.80;;
11338;SDS011;5724;42.684;23.252;2022-07-10T02:03:06;13.02;;;12.25;;
11338;SDS011;5724;42.684;23.252;2022-07-10T02:05:51;12.52;;;11.70;;
11338;SDS011;5724;42.684;23.252;2022-07-10T02:08:16;14.25;;;12.90;;
11338;SDS011;5724;42.684;23.252;2022-07-10T02:10:42;13.07;;;12.30;;
11338;SDS011;5724;42.684;23.252;2022-07-10T02:13:07;13.40;;;12.70;;
11338;SDS011;5724;42.684;23.252;2022-07-10T02:15:34;13.70;;;12.70;;
11338;SDS011;5724;42.684;23.252;2022-07-10T02:18:00;13.93;;;13.13;;
11338;SDS011;5724;42.684;23.252;2022-07-10T02:20:25;14.43;;;13.50;;
11338;SDS011;5724;42.684;23.252;2022-07-10T02:22:51;12.93;;;12.05;;
11338;SDS011;5724;42.684;23.252;2022-07-10T02:25:16;13.95;;;13.10;;
11338;SDS011;5724;42.684;23.252;2022-07-10T02:27:42;13.27;;;12.25;;
11338;SDS011;5724;42.684;23.252;2022-07-10T02:30:07;14.98;;;13.82;;
11338;SDS011;5724;42.684;23.252;2022-07-10T02:32:33;13.13;;;12.38;;
11338;SDS011;5724;42.684;23.252;2022-07-10T02:34:59;13.27;;;12.10;;
11338;SDS011;5724;42.684;23.252;2022-07-10T02:37:24;12.75;;;11.95;;
11338;SDS011;5724;42.684;23.252;2022-07-10T02:39:50;12.45;;;11.73;;
11338;SDS011;5724;42.684;23.252;2022-07-10T02:42:16;12.80;;;12.00;;
11338;SDS011;5724;42.684;23.252;2022-07-10T02:44:41;12.35;;;11.75;;
11338;SDS011;5724;42.684;23.252;2022-07-10T02:47:07;12.10;;;11.50;;
11338;SDS011;5724;42.684;23.252;2022-07-10T02:49:32;12.50;;;11.70;;
11338;SDS011;5724;42.684;23.252;2022-07-10T02:51:58;12.80;;;11.77;;
11338;SDS011;5724;42.684;23.252;2022-07-10T02:54:24;11.75;;;11.18;;
11338;SDS011;5724;42.684;23.252;2022-07-10T02:56:49;12.32;;;11.68;;
11338;SDS011;5724;42.684;23.252;2022-07-10T02:59:15;11.85;;;10.93;;
11338;SDS011;5724;42.684;23.252;2022-07-10T03:01:42;12.32;;;11.52;;
11338;SDS011;5724;42.684;23.252;2022-07-10T03:04:07;12.95;;;11.90;;
11338;SDS011;5724;42.684;23.252;2022-07-10T03:06:33;11.98;;;11.32;;
11338;SDS011;5724;42.684;23.252;2022-07-10T03:08:58;13.43;;;12.35;;
11338;SDS011;5724;42.684;23.252;2022-07-10T03:11:24;12.60;;;11.70;;
11338;SDS011;5724;42.684;23.252;2022-07-10T03:13:49;12.60;;;11.80;;
11338;SDS011;5724;42.684;23.252;2022-07-10T03:16:15;13.13;;;12.32;;
11338;SDS011;5724;42.684;23.252;2022-07-10T03:18:40;13.50;;;12.60;;
11338;SDS011;5724;42.684;23.252;2022-07-10T03:21:05;13.30;;;12.25;;
11338;SDS011;5724;42.684;23.252;2022-07-10T03:23:31;13.32;;;12.38;;
11338;SDS011;5724;42.684;23.252;2022-07-10T03:25:56;12.90;;;12.10;;
11338;SDS011;5724;42.684;23.252;2022-07-10T03:28:22;12.82;;;11.80;;
11338;SDS011;5724;42.684;23.252;2022-07-10T03:30:47;13.38;;;12.48;;
11338;SDS011;5724;42.684;23.252;2022-07-10T03:33:13;12.55;;;11.68;;
11338;SDS011;5724;42.684;23.252;2022-07-10T03:35:39;12.30;;;11.60;;
11338;SDS011;5724;42.684;23.252;2022-07-10T03:38:05;13.32;;;12.30;;
11338;SDS011;5724;42.684;23.252;2022-07-10T03:40:30;12.88;;;11.88;;
11338;SDS011;5724;42.684;23.252;2022-07-10T03:42:56;12.85;;;11.75;;
11338;SDS011;5724;42.684;23.252;2022-07-10T03:45:21;12.20;;;11.45;;
11338;SDS011;5724;42.684;23.252;2022-07-10T03:47:47;12.23;;;11.18;;
11338;SDS011;5724;42.684;23.252;2022-07-10T03:50:12;12.98;;;12.00;;
11338;SDS011;5724;42.684;23.252;2022-07-10T03:52:38;12.05;;;11.35;;
11338;SDS011;5724;42.684;23.252;2022-07-10T03:55:03;11.98;;;11.27;;
11338;SDS011;5724;42.684;23.252;2022-07-10T03:57:29;12.45;;;11.55;;
11338;SDS011;5724;42.684;23.252;2022-07-10T04:00:14;11.27;;;10.57;;
11338;SDS011;5724;42.684;23.252;2022-07-10T04:02:39;11.55;;;10.65;;
11338;SDS011;5724;42.684;23.252;2022-07-10T04:05:05;11.55;;;10.70;;
11338;SDS011;5724;42.684;23.252;2022-07-10T04:07:31;12.73;;;11.52;;
11338;SDS011;5724;42.684;23.252;2022-07-10T04:09:57;11.07;;;10.38;;
11338;SDS011;5724;42.684;23.252;2022-07-10T04:12:23;11.50;;;10.80;;
11338;SDS011;5724;42.684;23.252;2022-07-10T04:14:49;11.35;;;10.70;;
11338;SDS011;5724;42.684;23.252;2022-07-10T04:17:16;11.30;;;10.57;;
11338;SDS011;5724;42.684;23.252;2022-07-10T04:19:42;10.60;;;9.93;;
11338;SDS011;5724;42.684;23.252;2022-07-10T04:22:08;11.10;;;10.30;;
11338;SDS011;5724;42.684;23.252;2022-07-10T04:24:34;10.32;;;9.82;;
11338;SDS011;5724;42.684;23.252;2022-07-10T04:27:00;9.60;;;9.10;;
11338;SDS011;5724;42.684;23.252;2022-07-10T04:29:26;9.75;;;9.25;;
11338;SDS011;5724;42.684;23.252;2022-07-10T04:31:51;9.82;;;9.10;;
11338;SDS011;5724;42.684;23.252;2022-07-10T04:34:17;9.65;;;8.90;;
11338;SDS011;5724;42.684;23.252;2022-07-10T04:36:42;9.68;;;9.05;;
11338;SDS011;5724;42.684;23.252;2022-07-10T04:39:08;10.00;;;9.30;;
11338;SDS011;5724;42.684;23.252;2022-07-10T04:41:33;10.27;;;8.95;;
11338;SDS011;5724;42.684;23.252;2022-07-10T04:43:59;10.00;;;9.40;;
11338;SDS011;5724;42.684;23.252;2022-07-10T04:46:24;9.88;;;9.27;;
11338;SDS011;5724;42.684;23.252;2022-07-10T04:48:50;9.82;;;9.32;;
11338;SDS011;5724;42.684;23.252;2022-07-10T04:51:16;9.75;;;8.98;;
11338;SDS011;5724;42.684;23.252;2022-07-10T04:53:42;9.23;;;8.77;;
11338;SDS011;5724;42.684;23.252;2022-07-10T04:56:07;8.63;;;8.23;;
11338;SDS011;5724;42.684;23.252;2022-07-10T04:58:33;9.73;;;9.02;;
11338;SDS011;5724;42.684;23.252;2022-07-10T05:00:58;9.88;;;9.18;;
11338;SDS011;5724;42.684;23.252;2022-07-10T05:03:24;9.18;;;8.57;;
11338;SDS011;5724;42.684;23.252;2022-07-10T05:05:49;9.18;;;8.57;;
11338;SDS011;5724;42.684;23.252;2022-07-10T05:08:15;9.40;;;8.90;;
11338;SDS011;5724;42.684;23.252;2022-07-10T05:10:40;8.88;;;8.48;;
11338;SDS011;5724;42.684;23.252;2022-07-10T05:13:06;8.77;;;8.27;;
11338;SDS011;5724;42.684;23.252;2022-07-10T05:15:31;8.52;;;7.70;;
11338;SDS011;5724;42.684;23.252;2022-07-10T05:17:57;8.27;;;7.88;;
11338;SDS011;5724;42.684;23.252;2022-07-10T05:20:22;8.93;;;8.10;;
11338;SDS011;5724;42.684;23.252;2022-07-10T05:22:48;8.45;;;8.00;;
11338;SDS011;5724;42.684;23.252;2022-07-10T05:25:13;8.13;;;7.68;;
11338;SDS011;5724;42.684;23.252;2022-07-10T05:27:39;8.15;;;7.63;;
11338;SDS011;5724;42.684;23.252;2022-07-10T05:30:04;8.27;;;7.68;;
11338;SDS011;5724;42.684;23.252;2022-07-10T05:32:30;7.88;;;7.45;;
11338;SDS011;5724;42.684;23.252;2022-07-10T05:34:59;8.40;;;7.97;;
11338;SDS011;5724;42.684;23.252;2022-07-10T05:37:24;7.82;;;7.43;;
11338;SDS011;5724;42.684;23.252;2022-07-10T05:39:49;8.13;;;7.63;;
11338;SDS011;5724;42.684;23.252;2022-07-10T05:42:15;8.13;;;7.72;;
11338;SDS011;5724;42.684;23.252;2022-07-10T05:44:40;8.57;;;7.75;;
11338;SDS011;5724;42.684;23.252;2022-07-10T05:47:06;8.27;;;7.65;;
11338;SDS011;5724;42.684;23.252;2022-07-10T05:49:32;7.88;;;7.32;;
11338;SDS011;5724;42.684;23.252;2022-07-10T05:51:57;8.50;;;7.82;;
11338;SDS011;5724;42.684;23.252;2022-07-10T05:54:23;8.30;;;7.78;;
11338;SDS011;5724;42.684;23.252;2022-07-10T05:56:49;7.30;;;6.93;;
11338;SDS011;5724;42.684;23.252;2022-07-10T05:59:15;8.20;;;7.70;;
11338;SDS011;5724;42.684;23.252;2022-07-10T06:01:40;7.47;;;6.95;;
11338;SDS011;5724;42.684;23.252;2022-07-10T06:04:06;6.97;;;6.50;;
11338;SDS011;5724;42.684;23.252;2022-07-10T06:06:32;7.40;;;6.75;;
11338;SDS011;5724;42.684;23.252;2022-07-10T06:08:57;6.38;;;5.82;;
11338;SDS011;5724;42.684;23.252;2022-07-10T06:11:24;7.20;;;6.53;;
11338;SDS011;5724;42.684;23.252;2022-07-10T06:13:49;5.75;;;5.45;;
11338;SDS011;5724;42.684;23.252;2022-07-10T06:16:15;5.63;;;5.22;;
11338;SDS011;5724;42.684;23.252;2022-07-10T06:18:41;5.63;;;5.22;;
11338;SDS011;5724;42.684;23.252;2022-07-10T06:21:06;5.82;;;5.15;;
11338;SDS011;5724;42.684;23.252;2022-07-10T06:23:33;5.68;;;5.28;;
11338;SDS011;5724;42.684;23.252;2022-07-10T06:25:58;5.90;;;5.50;;
11338;SDS011;5724;42.684;23.252;2022-07-10T06:28:24;6.10;;;5.63;;
11338;SDS011;5724;42.684;23.252;2022-07-10T06:30:49;5.75;;;5.30;;
11338;SDS011;5724;42.684;23.252;2022-07-10T06:33:15;5.72;;;5.43;;
11338;SDS011;5724;42.684;23.252;2022-07-10T06:35:40;4.95;;;4.60;;
11338;SDS011;5724;42.684;23.252;2022-07-10T06:38:06;4.90;;;4.70;;
11338;SDS011;5724;42.684;23.252;2022-07-10T06:40:35;4.65;;;4.40;;
11338;SDS011;5724;42.684;23.252;2022-07-10T06:43:02;5.20;;;5.00;;
11338;SDS011;5724;42.684;23.252;2022-07-10T06:45:27;5.43;;;4.90;;
11338;SDS011;5724;42.684;23.252;2022-07-10T06:47:53;5.15;;;4.82;;
11338;SDS011;5724;42.684;23.252;2022-07-10T06:50:25;4.75;;;4.50;;
11338;SDS011;5724;42.684;23.252;2022-07-10T06:52:55;4.70;;;4.50;;
11338;SDS011;5724;42.684;23.252;2022-07-10T06:55:21;4.68;;;4.40;;
11338;SDS011;5724;42.684;23.252;2022-07-10T06:57:47;4.60;;;4.40;;
11338;SDS011;5724;42.684;23.252;2022-07-10T07:00:14;4.38;;;4.18;;
11338;SDS011;5724;42.684;23.252;2022-07-10T07:02:40;4.32;;;4.13;;
11338;SDS011;5724;42.684;23.252;2022-07-10T07:05:06;4.30;;;4.07;;
11338;SDS011;5724;42.684;23.252;2022-07-10T07:07:32;4.38;;;4.10;;
11338;SDS011;5724;42.684;23.252;2022-07-10T07:09:58;5.15;;;4.65;;
11338;SDS011;5724;42.684;23.252;2022-07-10T07:12:24;5.03;;;4.30;;
11338;SDS011;5724;42.684;23.252;2022-07-10T07:14:50;5.50;;;4.82;;
11338;SDS011;5724;42.684;23.252;2022-07-10T07:17:15;5.22;;;3.78;;
11338;SDS011;5724;42.684;23.252;2022-07-10T07:19:51;4.40;;;4.10;;
11338;SDS011;5724;42.684;23.252;2022-07-10T07:22:36;4.25;;;4.05;;
11338;SDS011;5724;42.684;23.252;2022-07-10T07:25:21;4.55;;;4.25;;
11338;SDS011;5724;42.684;23.252;2022-07-10T07:27:46;3.60;;;3.40;;
11338;SDS011;5724;42.684;23.252;2022-07-10T07:30:13;4.30;;;3.97;;
11338;SDS011;5724;42.684;23.252;2022-07-10T07:32:43;5.88;;;4.10;;
11338;SDS011;5724;42.684;23.252;2022-07-10T07:35:10;5.15;;;4.15;;
11338;SDS011;5724;42.684;23.252;2022-07-10T07:37:47;3.85;;;3.60;;
11338;SDS011;5724;42.684;23.252;2022-07-10T07:40:15;4.13;;;3.80;;
11338;SDS011;5724;42.684;23.252;2022-07-10T07:42:42;4.70;;;3.50;;
11338;SDS011;5724;42.684;23.252;2022-07-10T07:45:08;3.45;;;3.35;;
11338;SDS011;5724;42.684;23.252;2022-07-10T07:50:09;3.50;;;3.25;;
11338;SDS011;5724;42.684;23.252;2022-07-10T07:52:35;3.65;;;3.35;;
11338;SDS011;5724;42.684;23.252;2022-07-10T07:55:01;3.70;;;3.10;;
11338;SDS011;5724;42.684;23.252;2022-07-10T07:57:27;2.85;;;2.75;;
11338;SDS011;5724;42.684;23.252;2022-07-10T07:59:52;3.55;;;3.25;;
11338;SDS011;5724;42.684;23.252;2022-07-10T08:02:18;3.35;;;3.15;;
11338;SDS011;5724;42.684;23.252;2022-07-10T08:04:43;3.90;;;3.30;;
11338;SDS011;5724;42.684;23.252;2022-07-10T08:07:09;3.30;;;3.10;;
11338;SDS011;5724;42.684;23.252;2022-07-10T08:09:35;3.55;;;3.33;;
11338;SDS011;5724;42.684;23.252;2022-07-10T08:12:00;2.75;;;2.38;;
11338;SDS011;5724;42.684;23.252;2022-07-10T08:14:26;2.70;;;2.60;;
11338;SDS011;5724;42.684;23.252;2022-07-10T08:16:51;3.35;;;2.58;;
11338;SDS011;5724;42.684;23.252;2022-07-10T08:19:17;4.55;;;2.60;;
11338;SDS011;5724;42.684;23.252;2022-07-10T08:21:42;3.28;;;3.00;;
11338;SDS011;5724;42.684;23.252;2022-07-10T08:24:08;2.50;;;2.40;;
11338;SDS011;5724;42.684;23.252;2022-07-10T08:26:34;2.80;;;2.70;;
11338;SDS011;5724;42.684;23.252;2022-07-10T08:28:59;2.30;;;2.20;;
11338;SDS011;5724;42.684;23.252;2022-07-10T08:31:25;4.10;;;2.83;;
11338;SDS011;5724;42.684;23.252;2022-07-10T08:33:51;3.58;;;3.28;;
11338;SDS011;5724;42.684;23.252;2022-07-10T08:36:17;3.55;;;2.97;;
11338;SDS011;5724;42.684;23.252;2022-07-10T08:38:43;3.22;;;2.92;;
11338;SDS011;5724;42.684;23.252;2022-07-10T08:41:08;2.83;;;2.72;;
11338;SDS011;5724;42.684;23.252;2022-07-10T08:43:37;2.80;;;2.70;;
11338;SDS011;5724;42.684;23.252;2022-07-10T08:46:04;2.72;;;2.60;;
11338;SDS011;5724;42.684;23.252;2022-07-10T08:48:31;2.90;;;2.72;;
11338;SDS011;5724;42.684;23.252;2022-07-10T08:50:59;3.05;;;2.72;;
11338;SDS011;5724;42.684;23.252;2022-07-10T08:53:32;2.95;;;2.85;;
11338;SDS011;5724;42.684;23.252;2022-07-10T08:55:58;2.80;;;2.70;;
11338;SDS011;5724;42.684;23.252;2022-07-10T08:58:24;4.03;;;2.70;;
11338;SDS011;5724;42.684;23.252;2022-07-10T09:00:52;2.95;;;2.50;;
11338;SDS011;5724;42.684;23.252;2022-07-10T09:03:18;2.80;;;2.38;;
11338;SDS011;5724;42.684;23.252;2022-07-10T09:05:44;2.95;;;2.65;;
11338;SDS011;5724;42.684;23.252;2022-07-10T09:08:20;6.47;;;2.67;;
11338;SDS011;5724;42.684;23.252;2022-07-10T09:10:52;2.80;;;2.70;;
11338;SDS011;5724;42.684;23.252;2022-07-10T09:13:17;2.95;;;2.70;;
11338;SDS011;5724;42.684;23.252;2022-07-10T09:15:47;3.00;;;2.80;;
11338;SDS011;5724;42.684;23.252;2022-07-10T09:18:17;3.83;;;2.67;;
11338;SDS011;5724;42.684;23.252;2022-07-10T09:20:44;2.88;;;2.47;;
11338;SDS011;5724;42.684;23.252;2022-07-10T09:25:51;2.20;;;2.03;;
11338;SDS011;5724;42.684;23.252;2022-07-10T09:28:18;2.38;;;2.25;;
11338;SDS011;5724;42.684;23.252;2022-07-10T09:30:45;2.58;;;2.40;;
11338;SDS011;5724;42.684;23.252;2022-07-10T09:33:16;2.60;;;2.40;;
11338;SDS011;5724;42.684;23.252;2022-07-10T09:36:09;2.40;;;2.30;;
11338;SDS011;5724;42.684;23.252;2022-07-10T09:44:00;2.65;;;2.30;;
11338;SDS011;5724;42.684;23.252;2022-07-10T09:46:32;2.28;;;2.08;;
11338;SDS011;5724;42.684;23.252;2022-07-10T09:49:03;4.00;;;2.50;;
11338;SDS011;5724;42.684;23.252;2022-07-10T09:51:30;2.97;;;2.67;;
11338;SDS011;5724;42.684;23.252;2022-07-10T09:53:58;3.40;;;2.33;;
11338;SDS011;5724;42.684;23.252;2022-07-10T09:56:26;2.10;;;2.00;;
11338;SDS011;5724;42.684;23.252;2022-07-10T09:58:56;2.58;;;2.00;;
11338;SDS011;5724;42.684;23.252;2022-07-10T10:01:25;2.20;;;2.10;;
11338;SDS011;5724;42.684;23.252;2022-07-10T10:03:54;3.33;;;2.17;;
11338;SDS011;5724;42.684;23.252;2022-07-10T10:06:23;2.83;;;2.45;;
11338;SDS011;5724;42.684;23.252;2022-07-10T10:11:40;3.70;;;2.33;;
11338;SDS011;5724;42.684;23.252;2022-07-10T10:14:08;3.63;;;2.00;;
11338;SDS011;5724;42.684;23.252;2022-07-10T10:16:35;2.20;;;2.10;;
11338;SDS011;5724;42.684;23.252;2022-07-10T10:19:02;2.85;;;2.13;;
11338;SDS011;5724;42.684;23.252;2022-07-10T10:21:46;2.10;;;2.03;;
11338;SDS011;5724;42.684;23.252;2022-07-10T10:24:12;3.72;;;2.22;;
11338;SDS011;5724;42.684;23.252;2022-07-10T10:26:39;2.80;;;2.40;;
11338;SDS011;5724;42.684;23.252;2022-07-10T10:29:07;2.28;;;2.17;;
11338;SDS011;5724;42.684;23.252;2022-07-10T10:31:34;2.63;;;2.53;;
11338;SDS011;5724;42.684;23.252;2022-07-10T10:34:00;2.38;;;2.20;;
11338;SDS011;5724;42.684;23.252;2022-07-10T10:39:03;3.65;;;2.35;;
11338;SDS011;5724;42.684;23.252;2022-07-10T10:41:39;2.35;;;2.25;;
11338;SDS011;5724;42.684;23.252;2022-07-10T10:46:32;2.58;;;2.25;;
11338;SDS011;5724;42.684;23.252;2022-07-10T10:49:04;2.75;;;2.20;;
11338;SDS011;5724;42.684;23.252;2022-07-10T10:54:30;2.35;;;2.25;;
11338;SDS011;5724;42.684;23.252;2022-07-10T10:57:12;2.38;;;2.10;;
11338;SDS011;5724;42.684;23.252;2022-07-10T10:59:47;2.38;;;2.28;;
11338;SDS011;5724;42.684;23.252;2022-07-10T11:02:26;3.85;;;2.10;;
11338;SDS011;5724;42.684;23.252;2022-07-10T11:04:52;4.05;;;2.00;;
11338;SDS011;5724;42.684;23.252;2022-07-10T11:07:59;2.15;;;2.05;;
11338;SDS011;5724;42.684;23.252;2022-07-10T11:10:35;2.15;;;2.00;;
11338;SDS011;5724;42.684;23.252;2022-07-10T11:13:14;2.08;;;1.98;;
11338;SDS011;5724;42.684;23.252;2022-07-10T11:15:47;3.00;;;2.10;;
11338;SDS011;5724;42.684;23.252;2022-07-10T11:18:15;2.08;;;1.98;;
11338;SDS011;5724;42.684;23.252;2022-07-10T11:20:45;1.90;;;1.80;;
11338;SDS011;5724;42.684;23.252;2022-07-10T11:26:10;2.00;;;1.83;;
11338;SDS011;5724;42.684;23.252;2022-07-10T11:31:17;3.17;;;1.90;;
11338;SDS011;5724;42.684;23.252;2022-07-10T11:33:47;2.70;;;1.70;;
11338;SDS011;5724;42.684;23.252;2022-07-10T11:36:14;2.00;;;1.90;;
11338;SDS011;5724;42.684;23.252;2022-07-10T11:38:42;2.10;;;1.90;;
11338;SDS011;5724;42.684;23.252;2022-07-10T11:41:12;3.05;;;1.88;;
11338;SDS011;5724;42.684;23.252;2022-07-10T11:43:49;2.85;;;2.20;;
11338;SDS011;5724;42.684;23.252;2022-07-10T11:46:14;2.70;;;1.98;;
11338;SDS011;5724;42.684;23.252;2022-07-10T11:48:40;3.70;;;1.85;;
11338;SDS011;5724;42.684;23.252;2022-07-10T11:51:23;2.00;;;1.90;;
11338;SDS011;5724;42.684;23.252;2022-07-10T11:53:54;1.90;;;1.80;;
11338;SDS011;5724;42.684;23.252;2022-07-10T11:56:28;2.22;;;1.80;;
11338;SDS011;5724;42.684;23.252;2022-07-10T11:59:13;2.00;;;1.85;;
11338;SDS011;5724;42.684;23.252;2022-07-10T12:01:41;2.65;;;1.73;;
11338;SDS011;5724;42.684;23.252;2022-07-10T12:04:08;2.97;;;1.70;;
11338;SDS011;5724;42.684;23.252;2022-07-10T12:06:35;1.85;;;1.73;;
11338;SDS011;5724;42.684;23.252;2022-07-10T12:09:03;1.83;;;1.73;;
11338;SDS011;5724;42.684;23.252;2022-07-10T12:11:30;2.00;;;1.90;;
11338;SDS011;5724;42.684;23.252;2022-07-10T12:16:42;1.85;;;1.48;;
11338;SDS011;5724;42.684;23.252;2022-07-10T12:19:08;1.73;;;1.60;;
11338;SDS011;5724;42.684;23.252;2022-07-10T12:21:37;1.65;;;1.60;;
11338;SDS011;5724;42.684;23.252;2022-07-10T12:24:03;2.13;;;1.65;;
11338;SDS011;5724;42.684;23.252;2022-07-10T12:26:33;1.92;;;1.48;;
11338;SDS011;5724;42.684;23.252;2022-07-10T12:29:00;2.00;;;1.90;;
11338;SDS011;5724;42.684;23.252;2022-07-10T12:31:27;2.55;;;1.60;;
11338;SDS011;5724;42.684;23.252;2022-07-10T12:34:04;2.05;;;1.40;;
11338;SDS011;5724;42.684;23.252;2022-07-10T12:36:50;2.33;;;1.45;;
11338;SDS011;5724;42.684;23.252;2022-07-10T12:39:18;2.10;;;1.50;;
11338;SDS011;5724;42.684;23.252;2022-07-10T12:42:01;1.92;;;1.27;;
11338;SDS011;5724;42.684;23.252;2022-07-10T12:44:36;1.30;;;1.20;;
11338;SDS011;5724;42.684;23.252;2022-07-10T12:47:02;1.20;;;1.13;;
11338;SDS011;5724;42.684;23.252;2022-07-10T12:49:52;1.65;;;1.17;;
11338;SDS011;5724;42.684;23.252;2022-07-10T12:52:32;1.63;;;1.50;;
11338;SDS011;5724;42.684;23.252;2022-07-10T12:55:17;4.00;;;1.10;;
11338;SDS011;5724;42.684;23.252;2022-07-10T12:57:50;1.23;;;1.10;;
11338;SDS011;5724;42.684;23.252;2022-07-10T13:00:29;0.98;;;0.98;;
11338;SDS011;5724;42.684;23.252;2022-07-10T13:03:04;2.72;;;1.23;;
11338;SDS011;5724;42.684;23.252;2022-07-10T13:05:40;2.03;;;1.25;;
11338;SDS011;5724;42.684;23.252;2022-07-10T13:08:08;1.05;;;1.00;;
11338;SDS011;5724;42.684;23.252;2022-07-10T13:10:36;1.50;;;0.93;;
11338;SDS011;5724;42.684;23.252;2022-07-10T13:13:02;1.10;;;1.10;;
11338;SDS011;5724;42.684;23.252;2022-07-10T13:15:28;2.05;;;1.10;;
11338;SDS011;5724;42.684;23.252;2022-07-10T13:17:55;0.90;;;0.90;;
11338;SDS011;5724;42.684;23.252;2022-07-10T13:20:21;1.85;;;1.10;;
11338;SDS011;5724;42.684;23.252;2022-07-10T13:22:47;1.50;;;1.40;;
11338;SDS011;5724;42.684;23.252;2022-07-10T13:25:12;1.88;;;0.93;;
11338;SDS011;5724;42.684;23.252;2022-07-10T13:27:38;1.00;;;1.00;;
11338;SDS011;5724;42.684;23.252;2022-07-10T13:30:04;1.25;;;1.02;;
11338;SDS011;5724;42.684;23.252;2022-07-10T13:32:31;0.85;;;0.85;;
11338;SDS011;5724;42.684;23.252;2022-07-10T13:34:56;1.08;;;0.95;;
11338;SDS011;5724;42.684;23.252;2022-07-10T13:37:22;2.72;;;1.00;;
11338;SDS011;5724;42.684;23.252;2022-07-10T13:39:48;1.10;;;1.10;;
11338;SDS011;5724;42.684;23.252;2022-07-10T13:42:13;1.45;;;1.35;;
11338;SDS011;5724;42.684;23.252;2022-07-10T13:44:39;2.80;;;1.10;;
11338;SDS011;5724;42.684;23.252;2022-07-10T13:47:04;1.40;;;1.20;;
11338;SDS011;5724;42.684;23.252;2022-07-10T13:49:30;1.00;;;1.00;;
11338;SDS011;5724;42.684;23.252;2022-07-10T13:51:56;2.60;;;1.00;;
11338;SDS011;5724;42.684;23.252;2022-07-10T13:54:21;1.90;;;1.17;;
11338;SDS011;5724;42.684;23.252;2022-07-10T13:56:47;1.10;;;1.00;;
11338;SDS011;5724;42.684;23.252;2022-07-10T13:59:12;3.03;;;0.93;;
11338;SDS011;5724;42.684;23.252;2022-07-10T14:01:38;1.00;;;0.95;;
11338;SDS011;5724;42.684;23.252;2022-07-10T14:04:03;2.70;;;1.00;;
11338;SDS011;5724;42.684;23.252;2022-07-10T14:06:29;1.95;;;1.15;;
11338;SDS011;5724;42.684;23.252;2022-07-10T14:08:54;1.10;;;1.10;;
11338;SDS011;5724;42.684;23.252;2022-07-10T14:11:21;1.58;;;1.00;;
11338;SDS011;5724;42.684;23.252;2022-07-10T14:13:46;2.95;;;1.15;;
11338;SDS011;5724;42.684;23.252;2022-07-10T14:16:12;1.45;;;1.10;;
11338;SDS011;5724;42.684;23.252;2022-07-10T14:18:38;1.33;;;1.27;;
11338;SDS011;5724;42.684;23.252;2022-07-10T14:21:04;1.25;;;1.02;;
11338;SDS011;5724;42.684;23.252;2022-07-10T14:23:32;1.02;;;1.02;;
11338;SDS011;5724;42.684;23.252;2022-07-10T14:25:58;3.75;;;1.13;;
11338;SDS011;5724;42.684;23.252;2022-07-10T14:28:24;2.05;;;1.00;;
11338;SDS011;5724;42.684;23.252;2022-07-10T14:30:49;1.17;;;1.10;;
11338;SDS011;5724;42.684;23.252;2022-07-10T14:33:15;1.48;;;1.15;;
11338;SDS011;5724;42.684;23.252;2022-07-10T14:35:41;1.45;;;1.00;;
11338;SDS011;5724;42.684;23.252;2022-07-10T14:38:06;1.55;;;1.45;;
11338;SDS011;5724;42.684;23.252;2022-07-10T14:40:32;1.20;;;1.10;;
11338;SDS011;5724;42.684;23.252;2022-07-10T14:42:58;1.08;;;1.08;;
11338;SDS011;5724;42.684;23.252;2022-07-10T14:45:24;1.17;;;1.10;;
11338;SDS011;5724;42.684;23.252;2022-07-10T14:47:49;1.20;;;1.10;;
11338;SDS011;5724;42.684;23.252;2022-07-10T14:50:15;1.50;;;1.40;;
11338;SDS011;5724;42.684;23.252;2022-07-10T14:52:44;1.20;;;1.20;;
11338;SDS011;5724;42.684;23.252;2022-07-10T14:55:10;1.80;;;1.30;;
11338;SDS011;5724;42.684;23.252;2022-07-10T14:57:35;0.93;;;0.93;;
11338;SDS011;5724;42.684;23.252;2022-07-10T15:00:01;1.10;;;1.10;;
11338;SDS011;5724;42.684;23.252;2022-07-10T15:02:27;1.38;;;1.27;;
11338;SDS011;5724;42.684;23.252;2022-07-10T15:04:52;1.48;;;1.38;;
11338;SDS011;5724;42.684;23.252;2022-07-10T15:07:18;1.20;;;1.20;;
11338;SDS011;5724;42.684;23.252;2022-07-10T15:09:44;1.20;;;1.10;;
11338;SDS011;5724;42.684;23.252;2022-07-10T15:12:10;3.03;;;1.10;;